createdAt,value
2018-05-23T00:03:51.219Z,3.20
2018-05-23T00:08:53.924Z,2.60
2018-05-23T00:13:56.518Z,2.80
2018-05-23T00:18:59.052Z,2.77
2018-05-23T00:24:01.748Z,2.87
2018-05-23T00:29:04.419Z,3.37
2018-05-23T00:34:06.910Z,2.60
2018-05-23T00:39:09.432Z,2.83
2018-05-23T00:44:12.000Z,2.87
2018-05-23T00:49:14.490Z,2.70
2018-05-23T00:54:17.002Z,2.90
2018-05-23T00:59:19.485Z,2.70
2018-05-23T01:04:22.103Z,2.90
2018-05-23T01:09:24.659Z,3.17
2018-05-23T01:14:27.239Z,3.27
2018-05-23T01:19:29.738Z,2.97
2018-05-23T01:24:32.275Z,3.30
2018-05-23T01:29:34.780Z,3.00
2018-05-23T01:34:37.349Z,3.03
2018-05-23T01:39:39.825Z,3.20
2018-05-23T01:44:42.438Z,3.70
2018-05-23T01:49:44.953Z,4.20
2018-05-23T01:54:47.635Z,3.33
2018-05-23T01:59:50.141Z,3.10
2018-05-23T02:04:52.708Z,3.27
2018-05-23T02:09:55.265Z,3.50
2018-05-23T02:14:57.779Z,3.33
2018-05-23T02:20:00.290Z,3.33
2018-05-23T02:25:02.752Z,3.30
2018-05-23T02:30:05.253Z,3.30
2018-05-23T02:35:07.739Z,3.60
2018-05-23T02:40:10.237Z,3.17
2018-05-23T02:45:13.024Z,3.63
2018-05-23T02:50:16.057Z,3.93
2018-05-23T02:55:18.815Z,3.70
2018-05-23T03:00:21.626Z,4.23
2018-05-23T03:05:24.136Z,4.07
2018-05-23T03:10:26.671Z,3.73
2018-05-23T03:15:29.195Z,4.10
2018-05-23T03:20:31.750Z,3.80
2018-05-23T03:25:34.216Z,3.37
2018-05-23T03:30:36.711Z,3.77
2018-05-23T03:35:39.199Z,3.97
2018-05-23T03:40:41.691Z,4.30
2018-05-23T03:45:44.306Z,3.90
2018-05-23T03:50:46.857Z,4.10
2018-05-23T03:55:49.364Z,4.27
2018-05-23T04:01:03.631Z,4.40
2018-05-23T04:06:18.076Z,4.20
2018-05-23T04:11:20.619Z,4.40
2018-05-23T04:16:23.266Z,4.30
2018-05-23T04:21:26.622Z,4.50
2018-05-23T04:26:30.014Z,4.50
2018-05-23T04:31:32.529Z,4.20
2018-05-23T04:36:35.106Z,3.67
2018-05-23T04:41:37.680Z,3.30
2018-05-23T04:46:40.160Z,3.77
2018-05-23T04:51:42.677Z,3.50
2018-05-23T04:56:45.284Z,3.53
2018-05-23T05:01:47.808Z,3.47
2018-05-23T05:06:50.343Z,3.60
2018-05-23T05:11:52.878Z,3.60
2018-05-23T05:16:55.348Z,3.80
2018-05-23T05:21:57.992Z,3.40
2018-05-23T05:27:00.542Z,3.47
2018-05-23T05:32:03.066Z,3.45
2018-05-23T05:37:05.571Z,3.75
2018-05-23T05:42:08.114Z,3.62
2018-05-23T05:47:10.826Z,3.47
2018-05-23T05:52:13.434Z,3.40
2018-05-23T05:57:16.168Z,3.60
2018-05-23T06:02:18.701Z,2.97
2018-05-23T06:07:21.252Z,3.58
2018-05-23T06:12:23.822Z,3.30
2018-05-23T06:17:26.400Z,3.12
2018-05-23T06:22:28.885Z,3.40
2018-05-23T06:27:31.484Z,3.60
2018-05-23T06:32:33.965Z,3.90
2018-05-23T06:37:36.520Z,3.53
2018-05-23T06:42:39.013Z,3.70
2018-05-23T06:47:41.550Z,3.12
2018-05-23T06:52:44.107Z,3.28
2018-05-23T06:57:46.697Z,3.30
2018-05-23T07:02:49.409Z,3.20
2018-05-23T07:07:52.001Z,3.33
2018-05-23T07:12:54.495Z,3.70
2018-05-23T07:17:57.097Z,3.62
2018-05-23T07:22:59.548Z,3.37
2018-05-23T07:28:02.059Z,3.30
2018-05-23T07:33:04.546Z,3.08
2018-05-23T07:38:07.067Z,3.03
2018-05-23T07:43:09.607Z,3.15
2018-05-23T07:48:12.143Z,3.12
2018-05-23T07:53:14.685Z,3.30
2018-05-23T07:58:17.307Z,3.03
2018-05-23T08:03:19.826Z,3.30
2018-05-23T08:08:22.324Z,3.30
2018-05-23T08:13:24.884Z,3.13
2018-05-23T08:18:27.369Z,3.27
2018-05-23T08:23:29.938Z,2.90
2018-05-23T08:28:32.448Z,3.33
2018-05-23T08:33:34.937Z,3.58
2018-05-23T08:38:37.429Z,3.55
2018-05-23T08:43:40.062Z,3.60
2018-05-23T08:48:42.494Z,3.40
2018-05-23T08:53:45.195Z,3.27
2018-05-23T08:58:47.732Z,3.53
2018-05-23T09:03:50.295Z,3.17
2018-05-23T09:08:52.824Z,2.80
2018-05-23T09:13:55.350Z,3.00
2018-05-23T09:18:57.865Z,3.43
2018-05-23T09:24:00.364Z,3.00
2018-05-23T09:29:02.819Z,2.75
2018-05-23T09:34:05.338Z,3.10
2018-05-23T09:39:07.925Z,2.85
2018-05-23T09:44:10.397Z,3.00
2018-05-23T09:49:12.902Z,2.50
2018-05-23T09:54:15.426Z,2.80
2018-05-23T09:59:17.996Z,2.50
2018-05-23T10:04:20.517Z,2.50
2018-05-23T10:09:23.015Z,2.60
2018-05-23T10:14:25.560Z,2.70
2018-05-23T10:19:28.146Z,2.37
2018-05-23T10:24:30.619Z,2.50
2018-05-23T10:29:33.146Z,2.47
2018-05-23T10:34:35.694Z,2.60
2018-05-23T10:39:38.182Z,2.65
2018-05-23T10:44:40.879Z,2.40
2018-05-23T10:49:43.417Z,2.30
2018-05-23T10:54:46.681Z,2.50
2018-05-23T10:59:49.199Z,2.57
2018-05-23T11:04:51.882Z,2.47
2018-05-23T11:09:54.343Z,2.40
2018-05-23T11:14:56.964Z,2.10
2018-05-23T11:19:59.435Z,2.30
2018-05-23T11:25:01.924Z,2.20
2018-05-23T11:30:04.409Z,2.27
2018-05-23T11:35:06.902Z,2.17
2018-05-23T11:40:09.488Z,2.17
2018-05-23T11:45:12.001Z,2.43
2018-05-23T11:50:14.594Z,2.20
2018-05-23T11:55:17.375Z,2.80
2018-05-23T12:00:19.898Z,2.10
2018-05-23T12:05:22.385Z,2.43
2018-05-23T12:10:25.078Z,2.43
2018-05-23T12:15:27.493Z,2.27
2018-05-23T12:20:30.844Z,2.37
2018-05-23T12:25:33.310Z,2.10
2018-05-23T12:30:35.797Z,2.30
2018-05-23T12:35:38.305Z,2.10
2018-05-23T12:40:40.843Z,2.30
2018-05-23T12:45:43.396Z,2.20
2018-05-23T12:50:46.002Z,1.97
2018-05-23T12:55:48.550Z,2.00
2018-05-23T13:00:51.047Z,2.03
2018-05-23T13:05:53.580Z,2.00
2018-05-23T13:10:56.104Z,2.10
2018-05-23T13:15:58.628Z,2.10
2018-05-23T13:21:01.552Z,2.20
2018-05-23T13:26:04.049Z,2.13
2018-05-23T13:31:06.611Z,2.60
2018-05-23T13:36:09.097Z,2.10
2018-05-23T13:41:11.591Z,1.97
2018-05-23T13:46:14.261Z,2.10
2018-05-23T13:51:16.792Z,2.17
2018-05-23T13:56:19.634Z,2.37
2018-05-23T14:01:22.150Z,2.30
2018-05-23T14:06:24.729Z,2.00
2018-05-23T14:11:27.208Z,1.93
2018-05-23T14:16:29.712Z,1.83
2018-05-23T14:21:32.353Z,1.87
2018-05-23T14:26:34.896Z,1.93
2018-05-23T14:31:37.417Z,2.00
2018-05-23T14:36:39.925Z,2.00
2018-05-23T14:41:42.479Z,2.20
2018-05-23T14:46:44.971Z,1.53
2018-05-23T14:51:47.538Z,1.87
2018-05-23T14:56:50.039Z,1.80
2018-05-23T15:01:52.571Z,1.80
2018-05-23T15:06:55.065Z,1.83
2018-05-23T15:11:57.577Z,2.10
2018-05-23T15:17:00.072Z,1.93
2018-05-23T15:22:02.585Z,1.53
2018-05-23T15:27:05.099Z,2.13
2018-05-23T15:32:07.578Z,1.90
2018-05-23T15:37:10.120Z,1.93
2018-05-23T15:42:12.665Z,1.70
2018-05-23T15:47:15.705Z,1.70
2018-05-23T15:52:18.919Z,1.40
2018-05-23T15:57:21.480Z,1.50
2018-05-23T16:02:23.959Z,1.70
2018-05-23T16:07:26.488Z,1.30
2018-05-23T16:12:29.157Z,1.70
2018-05-23T16:17:31.930Z,1.47
2018-05-23T16:22:34.403Z,1.60
2018-05-23T16:27:36.997Z,1.73
2018-05-23T16:32:39.622Z,1.27
2018-05-23T16:37:42.232Z,1.40
2018-05-23T16:42:44.991Z,1.40
2018-05-23T16:47:47.475Z,1.50
2018-05-23T16:52:50.056Z,1.10
2018-05-23T16:57:52.550Z,1.60
2018-05-23T17:02:55.138Z,1.40
2018-05-23T17:07:58.296Z,1.20
2018-05-23T17:13:00.833Z,1.30
2018-05-23T17:18:03.330Z,1.50
2018-05-23T17:23:05.829Z,1.40
2018-05-23T17:28:08.386Z,1.30
2018-05-23T17:33:10.883Z,1.37
2018-05-23T17:38:13.442Z,1.13
2018-05-23T17:43:16.619Z,1.23
2018-05-23T17:48:19.437Z,1.30
2018-05-23T17:53:22.206Z,1.40
2018-05-23T17:58:24.903Z,1.53
2018-05-23T18:03:28.851Z,1.30
2018-05-23T18:08:31.503Z,1.20
2018-05-23T18:13:34.028Z,1.33
2018-05-23T18:18:36.524Z,1.33
2018-05-23T18:23:39.116Z,1.23
2018-05-23T18:28:41.565Z,1.20
2018-05-23T18:33:44.112Z,1.30
2018-05-23T18:38:46.800Z,1.10
2018-05-23T18:43:49.337Z,1.53
2018-05-23T18:48:51.883Z,1.40
2018-05-23T18:53:54.393Z,1.40
2018-05-23T18:58:56.893Z,1.63
2018-05-23T19:03:59.370Z,1.50
2018-05-23T19:09:01.961Z,1.57
2018-05-23T19:14:04.461Z,1.70
2018-05-23T19:19:06.958Z,1.43
2018-05-23T19:24:10.138Z,1.67
2018-05-23T19:29:14.526Z,1.43
2018-05-23T19:34:17.438Z,1.77
2018-05-23T19:39:21.287Z,1.73
2018-05-23T19:44:24.189Z,2.07
2018-05-23T19:49:26.701Z,1.70
2018-05-23T19:54:29.238Z,1.83
2018-05-23T19:59:31.945Z,1.80
2018-05-23T20:04:34.403Z,1.70
2018-05-23T20:09:36.959Z,2.10
2018-05-23T20:14:39.847Z,2.10
2018-05-23T20:19:42.360Z,2.23
2018-05-23T20:24:44.894Z,2.00
2018-05-23T20:29:47.507Z,2.30
2018-05-23T20:34:50.022Z,1.90
2018-05-23T20:39:52.528Z,1.90
2018-05-23T20:44:56.194Z,2.43
2018-05-23T20:49:58.665Z,2.20
2018-05-23T20:55:02.196Z,2.37
2018-05-23T21:00:04.822Z,2.10
2018-05-23T21:05:08.166Z,2.00
2018-05-23T21:10:10.859Z,2.03
2018-05-23T21:15:13.608Z,2.30
2018-05-23T21:20:16.413Z,2.53
2018-05-23T21:25:18.937Z,2.30
2018-05-23T21:30:21.588Z,2.47
2018-05-23T21:35:24.354Z,2.37
2018-05-23T21:40:27.350Z,2.23
2018-05-23T21:45:30.016Z,2.27
2018-05-23T21:50:32.548Z,2.50
2018-05-23T21:55:35.015Z,2.33
2018-05-23T22:00:43.300Z,1.90
2018-05-23T22:05:45.900Z,2.30
2018-05-23T22:10:48.566Z,2.40
2018-05-23T22:15:51.177Z,2.60
2018-05-23T22:20:53.990Z,2.50
2018-05-23T22:25:56.507Z,2.20
2018-05-23T22:30:59.011Z,2.43
2018-05-23T22:36:01.528Z,2.17
2018-05-23T22:41:04.011Z,2.47
2018-05-23T22:46:06.488Z,3.07
2018-05-23T22:51:09.026Z,2.10
2018-05-23T22:56:11.522Z,2.20
2018-05-23T23:01:14.246Z,2.43
2018-05-23T23:06:16.778Z,2.40
2018-05-23T23:11:19.405Z,2.80
2018-05-23T23:16:22.019Z,2.57
2018-05-23T23:21:24.520Z,2.80
2018-05-23T23:26:27.533Z,2.30
2018-05-23T23:31:30.099Z,3.00
2018-05-23T23:36:32.600Z,2.93
2018-05-23T23:41:35.085Z,2.77
2018-05-23T23:46:37.594Z,2.40
2018-05-23T23:51:40.112Z,2.60
2018-05-23T23:56:42.642Z,2.67
